Westport Addition, Indiana
Current Conditions -  °F | °C
As of 1:53 PM on Tuesday 21 Oct 2014 (Local Time) from KMIE Reporting Station
Overcast Overcast  
Wind Chill: 53°   Ceiling: 2500
Heat Index: 53°   Visibility: 10mi
Dew Point: 42°   Wind: 14mph
Humidity: 66%   Direction: 360°N
Pressure: 30.07"   Gusts: NA
Location:  40.2341°N, 85.4639°W
Report Text: KMIE 211753Z 36012KT 10SM BKN025 BKN031 OVC065 12/06 A3007 RMK AO2 SLP181 T01170056 10117 20089 50004
Loading
Personal Weather Stations






























Interactive Weather Map
Tropical Storm Tracking
New forecast layout! Learn more

10-Day Weather Forecast

Advertisements
Track Severe Weather on mobile